Arlington, KY

9:04 PM CST on December 22, 2014 (GMT -0600)
South Adkins Dixon Road | Change Station
CLOSE
Current Station
Personal Weather Station
Location: Wickliffe, KY
Elevation: 443 ft
Nearby Weather Stations

Elev 443 ft 37.01 °N, 89.03 °W | Updated 4 seconds ago

Overcast
Overcast
52.5 °F
Feels Like 52.5 °F
N
1.1
Wind Variable Wind from WSW
Gusts 0.0 mph

Today
High -- | Low -- °F
--% Chance of Precip.
Yesterday
High -- | Low -- °F
Precip. -- in
7:05 AM 4:43 PM
New Moon, 2% visible
Pressure 29.62 in
Visibility 7.0 miles
Clouds Mostly Cloudy 700 ft
Overcast 1100 ft
Dew Point 52 °F
Humidity 97%
Rainfall 0.00 in
Snow Depth Not available.
UV 0 out of 12
Pollen 3.90 out of 12
Air Quality Not available.
Flu Activity Not available.
METAR KCIR 230255Z AUTO 18008KT 7SM BKN007 OVC011 13/13 A2962 RMK AO2 T01260126

More Conditions Fewer Conditions

Pressure 29.62 in
Visibility 7.0 miles
Clouds Mostly Cloudy 700 ft
Overcast 1100 ft
Dew Point 52 °F
Humidity 97%
Rainfall 0.00 in
Snow Depth Not available.
UV 0 out of 12
Pollen 3.90 out of 12
Air Quality Not available.
Flu Activity Not available.
METAR KCIR 230255Z AUTO 18008KT 7SM BKN007 OVC011 13/13 A2962 RMK AO2 T01260126

More Conditions Fewer Conditions

10-Day Weather Forecast

Almanac

Astronomy

Dec. 22, 2014 Rise Set
Actual Time
Civil Twilight
Nautical Twilight
Astronomical Twilight
Moon
Length of Visible Light
Length of Day
Tomorrow will be .
, % of the Moon is Illuminated

Today's Extremes

State Highs State Lows

Community

WunderPhotos

Upload Photos

1,779,763 photos uploaded!

WunderBlogs® & News

Nearby

Air Quality

  Air Quality AQ Index Pollutant
Not available.

Snow Depth

Station Depth Elevation

Earthquake Activity

City Distance Mag. Time & Date
Minimum magnitude displayed is 2.5.

Coastal Water Temperatures

Place Temperature

Nearby Weather Stations